Time;durP1;ratioP1;P1;durP2;ratioP2;P2;SDS_P1;SDS_P2;PMS_P1;PMS_P2;Temp;Humidity;BMP_temperature;BMP_pressure;BME280_temperature;BME280_humidity;BME280_pressure;Samples;Min_cycle;Max_cycle;Signal;HPM_P1;HPM_P2
2021/09/21 00:00:33;;;;;;;15.00;8.35;;;;;;;11.17;72.66;102929.47;5043751;28;20052;-48
2021/09/21 00:02:58;;;;;;;12.55;8.50;;;;;;;11.15;72.96;102925.91;5047454;28;20106;-51
2021/09/21 00:05:24;;;;;;;14.50;8.60;;;;;;;11.12;72.87;102924.06;5041543;28;20125;-51
2021/09/21 00:07:49;;;;;;;13.55;8.65;;;;;;;11.11;72.72;102926.59;5039100;28;20266;-50
2021/09/21 00:10:15;;;;;;;14.77;7.93;;;;;;;11.12;72.95;102924.06;5042826;28;20504;-47
2021/09/21 00:12:41;;;;;;;15.57;8.50;;;;;;;11.12;72.90;102926.66;5040781;28;20063;-48
2021/09/21 00:15:10;;;;;;;13.32;9.02;;;;;;;11.11;72.83;102926.59;5048910;28;20051;-47
2021/09/21 00:17:35;;;;;;;12.00;8.45;;;;;;;11.10;72.90;102925.69;5032577;28;20130;-55
2021/09/21 00:20:01;;;;;;;14.77;9.18;;;;;;;11.10;72.50;102925.69;5048231;28;20748;-48
2021/09/21 00:22:26;;;;;;;12.50;8.38;;;;;;;11.14;72.17;102926.75;5039885;28;20071;-51
2021/09/21 00:24:52;;;;;;;11.52;7.65;;;;;;;11.13;71.90;102927.56;5028500;28;20378;-47
2021/09/21 00:27:17;;;;;;;12.43;8.13;;;;;;;11.06;72.09;102935.94;5043600;28;20448;-47
2021/09/21 00:29:44;;;;;;;12.45;7.93;;;;;;;11.04;72.20;102933.25;5040117;28;20041;-48
2021/09/21 00:32:15;;;;;;;11.93;7.80;;;;;;;10.99;72.31;102929.56;5043875;28;20620;-52
2021/09/21 00:34:43;;;;;;;13.63;7.97;;;;;;;10.95;72.22;102932.88;5042976;28;20139;-48
2021/09/21 00:37:10;;;;;;;13.60;7.53;;;;;;;10.95;72.55;102935.47;5043291;28;20052;-51
2021/09/21 00:39:35;;;;;;;13.52;7.80;;;;;;;10.95;72.70;102940.69;5040615;28;20037;-53
2021/09/21 00:42:01;;;;;;;11.30;7.88;;;;;;;10.95;73.13;102938.09;5044451;28;20582;-48
2021/09/21 00:44:27;;;;;;;13.27;8.25;;;;;;;10.94;73.05;102936.28;5046367;28;20071;-49
2021/09/21 00:46:52;;;;;;;12.80;8.48;;;;;;;10.92;73.10;102935.31;5042961;28;20255;-48
2021/09/21 00:49:17;;;;;;;13.88;8.73;;;;;;;10.88;72.92;102944.75;5030359;28;20040;-49
2021/09/21 00:51:43;;;;;;;11.88;8.07;;;;;;;10.87;72.82;102949.88;5038516;28;20032;-48
2021/09/21 00:54:08;;;;;;;11.82;7.95;;;;;;;10.84;72.72;102953.25;5044284;28;20048;-49
2021/09/21 00:56:34;;;;;;;11.98;7.95;;;;;;;10.81;72.30;102955.72;5046434;28;20115;-49
2021/09/21 00:58:59;;;;;;;13.07;8.05;;;;;;;10.80;72.35;102955.63;5044305;28;20465;-48
2021/09/21 01:01:25;;;;;;;12.57;8.20;;;;;;;10.79;72.63;102961.72;5044082;28;20039;-50
2021/09/21 01:03:50;;;;;;;11.93;8.13;;;;;;;10.78;72.60;102942.56;5036614;28;20365;-49
2021/09/21 01:06:16;;;;;;;12.98;8.70;;;;;;;10.77;72.87;102945.97;5048349;28;20923;-49
2021/09/21 01:08:41;;;;;;;13.63;8.93;;;;;;;10.79;72.93;102939.13;5046014;28;20347;-51
2021/09/21 01:11:11;;;;;;;13.90;8.30;;;;;;;10.80;72.66;102942.59;5028233;28;20381;-50
2021/09/21 01:13:36;;;;;;;13.20;8.63;;;;;;;10.80;73.53;102926.94;5036963;28;20446;-53
2021/09/21 01:16:02;;;;;;;14.07;8.52;;;;;;;10.78;73.29;102929.50;5044376;28;20043;-49
2021/09/21 01:18:27;;;;;;;12.98;8.20;;;;;;;10.80;72.46;102930.44;5045662;28;20048;-51
2021/09/21 01:21:02;;;;;;;12.82;8.55;;;;;;;10.76;73.04;102917.22;5043295;28;21798;-46
2021/09/21 01:23:27;;;;;;;;;;;;;;;10.76;73.13;102918.09;5043455;28;20579;-47
2021/09/21 01:25:55;;;;;;;13.02;8.20;;;;;;;10.76;73.08;102914.59;5038157;28;20126;-50
2021/09/21 01:28:20;;;;;;;13.45;8.27;;;;;;;10.76;73.03;102905.06;5045431;28;20277;-50
2021/09/21 01:30:45;;;;;;;12.27;8.55;;;;;;;10.77;73.18;102908.56;5050261;28;20322;-48
2021/09/21 01:33:11;;;;;;;13.10;8.52;;;;;;;10.76;73.32;102907.66;5040946;28;20135;-50
2021/09/21 01:35:36;;;;;;;12.43;8.38;;;;;;;10.81;73.09;102913.97;5038245;28;20405;-51
2021/09/21 01:38:02;;;;;;;14.23;9.52;;;;;;;10.80;73.30;102920.00;5042882;28;20120;-49
2021/09/21 01:40:28;;;;;;;12.55;8.60;;;;;;;10.82;73.03;102918.38;5044359;28;20841;-46
2021/09/21 01:42:53;;;;;;;13.90;8.85;;;;;;;10.83;73.13;102922.78;5023949;28;20127;-51
2021/09/21 01:45:19;;;;;;;13.35;8.82;;;;;;;10.82;72.99;102920.09;5045839;28;20072;-50
2021/09/21 01:47:45;;;;;;;14.75;9.07;;;;;;;10.80;73.00;102922.63;5039077;28;20084;-52
2021/09/21 02:01:10;;;;;;;13.90;8.50;;;;;;;10.75;72.81;102918.03;5011461;28;20059;-48
2021/09/21 02:03:36;;;;;;;14.25;9.48;;;;;;;10.71;72.80;102917.00;5039912;28;20036;-51
2021/09/21 02:06:04;;;;;;;15.30;9.32;;;;;;;10.74;72.87;102911.91;5045752;28;20484;-48
2021/09/21 02:08:29;;;;;;;14.88;9.27;;;;;;;10.74;73.13;102916.22;5043931;28;20032;-51
2021/09/21 02:10:55;;;;;;;15.68;8.82;;;;;;;10.77;73.31;102913.78;5043937;28;20036;-48
2021/09/21 02:13:20;;;;;;;16.65;10.13;;;;;;;10.75;73.46;102916.31;5025552;28;20040;-51
2021/09/21 02:15:46;;;;;;;14.55;8.50;;;;;;;10.78;73.30;102918.19;5037984;28;20055;-49
2021/09/21 02:18:11;;;;;;;13.68;9.23;;;;;;;10.77;73.05;102919.88;5041942;28;20052;-48
2021/09/21 02:20:37;;;;;;;11.95;8.27;;;;;;;10.78;72.78;102920.78;5046134;28;20397;-48
2021/09/21 02:23:02;;;;;;;13.82;9.13;;;;;;;10.73;72.89;102919.69;5043223;28;20661;-51
2021/09/21 02:25:28;;;;;;;14.98;8.57;;;;;;;10.72;72.51;102916.19;5046963;28;20039;-48
2021/09/21 02:27:53;;;;;;;13.88;9.10;;;;;;;10.67;73.05;102915.09;5038207;28;20296;-49
2021/09/21 02:30:18;;;;;;;14.05;8.98;;;;;;;10.65;72.95;102921.03;5042145;28;20068;-47
2021/09/21 02:32:46;;;;;;;12.93;8.50;;;;;;;10.65;72.68;102918.44;5043395;28;20052;-51
2021/09/21 02:35:11;;;;;;;12.13;7.93;;;;;;;10.62;72.61;102919.19;5027567;28;20041;-48
2021/09/21 02:37:36;;;;;;;13.00;7.78;;;;;;;10.60;73.04;102923.47;5017537;28;20495;-52
2021/09/21 02:40:03;;;;;;;13.13;8.23;;;;;;;10.58;73.03;102931.19;5047892;28;20491;-50
2021/09/21 02:42:28;;;;;;;15.07;8.80;;;;;;;10.56;72.64;102929.34;5041162;28;20067;-47
2021/09/21 02:44:54;;;;;;;15.98;8.75;;;;;;;10.53;72.82;102930.09;5043752;28;20060;-50
2021/09/21 02:47:19;;;;;;;13.13;8.80;;;;;;;10.50;72.50;102935.16;5043548;28;20045;-48
2021/09/21 02:49:44;;;;;;;12.93;8.77;;;;;;;10.51;72.68;102943.88;5037942;28;20392;-47
2021/09/21 02:52:10;;;;;;;13.98;9.00;;;;;;;10.50;72.65;102955.13;5025970;28;20159;-53
2021/09/21 02:54:35;;;;;;;13.48;8.55;;;;;;;10.42;72.78;102952.19;5045729;28;20545;-51
2021/09/21 02:57:00;;;;;;;13.18;8.80;;;;;;;10.39;73.18;102953.75;5042928;28;20124;-51
2021/09/21 02:59:26;;;;;;;13.38;8.65;;;;;;;10.36;72.97;102951.91;5042294;28;20050;-46
2021/09/21 03:01:52;;;;;;;13.57;9.07;;;;;;;10.33;72.74;102954.34;5036156;28;20040;-48
2021/09/21 03:04:25;;;;;;;14.40;9.27;;;;;;;10.29;73.25;102955.03;5040873;28;20040;-47
2021/09/21 03:06:54;;;;;;;15.73;9.68;;;;;;;10.26;73.32;102952.25;5045625;28;20086;-49
2021/09/21 03:11:58;;;;;;;13.18;8.52;;;;;;;10.21;72.97;102961.59;5032800;28;20492;-48
2021/09/21 03:17:18;;;;;;;13.53;9.30;;;;;;;10.14;73.62;102959.47;5042646;28;20767;-50
2021/09/21 03:19:44;;;;;;;15.23;8.65;;;;;;;10.13;73.41;102965.50;5037549;28;20279;-49
2021/09/21 03:22:09;;;;;;;16.52;10.15;;;;;;;9.96;74.10;102967.28;5038934;28;20055;-48
2021/09/21 03:24:35;;;;;;;15.10;9.32;;;;;;;9.89;74.58;102961.69;5046329;28;20127;-48
2021/09/21 03:27:00;;;;;;;13.05;8.95;;;;;;;9.88;74.94;102952.09;5042373;28;20545;-47
2021/09/21 03:29:26;;;;;;;14.35;9.50;;;;;;;9.87;74.34;102958.13;5042402;28;20389;-48
2021/09/21 03:31:52;;;;;;;14.93;9.63;;;;;;;9.87;74.26;102971.16;5037835;28;20296;-52
2021/09/21 03:34:17;;;;;;;16.35;10.30;;;;;;;9.85;74.53;102975.38;5040522;28;20489;-51
2021/09/21 03:36:43;;;;;;;16.13;10.45;;;;;;;9.80;75.00;102980.38;5045035;28;20054;-48
2021/09/21 03:39:08;;;;;;;17.70;10.65;;;;;;;9.79;74.65;102991.59;5040695;28;20041;-48
2021/09/21 03:41:34;;;;;;;14.48;9.75;;;;;;;9.78;74.64;102990.72;5042702;28;20529;-56
2021/09/21 03:43:59;;;;;;;16.33;10.80;;;;;;;9.80;74.61;102992.50;5035017;28;20123;-52
2021/09/21 03:46:24;;;;;;;17.85;11.43;;;;;;;9.77;75.07;102986.31;5043344;28;20319;-50
2021/09/21 03:48:50;;;;;;;15.77;10.15;;;;;;;9.78;74.60;102984.59;5047045;28;20105;-49
2021/09/21 03:51:15;;;;;;;15.93;10.13;;;;;;;9.74;74.93;102991.38;5025734;28;20090;-47
2021/09/21 03:53:41;;;;;;;16.40;10.32;;;;;;;9.78;74.97;102992.41;5037387;28;20096;-52
2021/09/21 03:56:06;;;;;;;16.55;9.95;;;;;;;9.80;74.84;102993.41;5041657;28;20130;-53
2021/09/21 03:58:31;;;;;;;19.55;12.13;;;;;;;9.74;75.06;102996.59;5044664;28;20263;-50
2021/09/21 04:00:57;;;;;;;18.30;11.75;;;;;;;9.72;75.52;102989.50;5049408;28;20076;-47
2021/09/21 04:03:22;;;;;;;16.92;10.55;;;;;;;9.73;75.19;102987.00;5043371;28;20175;-48
2021/09/21 04:05:47;;;;;;;15.93;9.93;;;;;;;9.72;74.86;102989.50;5043696;28;20308;-51
2021/09/21 04:08:13;;;;;;;15.68;10.18;;;;;;;9.70;74.95;102985.91;5045981;28;20464;-50
2021/09/21 04:10:38;;;;;;;17.92;11.30;;;;;;;9.65;75.01;102985.69;5043921;28;20313;-49
2021/09/21 04:13:03;;;;;;;15.45;10.07;;;;;;;9.67;74.93;102993.59;5047737;28;20044;-47
2021/09/21 04:15:29;;;;;;;17.33;10.65;;;;;;;9.66;75.01;102997.91;5046122;28;20049;-50
2021/09/21 04:17:54;;;;;;;18.75;10.25;;;;;;;9.65;74.51;103003.03;5039261;28;20053;-48
2021/09/21 04:20:19;;;;;;;15.02;9.88;;;;;;;9.62;74.83;102998.59;5042873;28;20515;-50
2021/09/21 04:22:45;;;;;;;17.40;10.63;;;;;;;9.67;74.27;102993.59;5047417;28;20105;-47
2021/09/21 04:25:12;;;;;;;16.35;10.55;;;;;;;9.67;74.40;103004.00;5025656;28;20459;-51
2021/09/21 04:27:38;;;;;;;17.02;11.30;;;;;;;9.66;74.14;103007.44;5039981;28;20119;-47
2021/09/21 04:30:04;;;;;;;19.15;12.30;;;;;;;9.58;74.80;103012.25;5043615;28;20039;-50
2021/09/21 04:32:29;;;;;;;17.38;11.02;;;;;;;9.55;74.65;103029.44;5046058;28;20035;-51
2021/09/21 04:34:55;;;;;;;17.90;11.30;;;;;;;9.51;74.78;103020.59;5045054;28;20060;-49
2021/09/21 04:37:21;;;;;;;20.15;11.63;;;;;;;9.49;74.67;103022.19;5025753;28;21057;-51
2021/09/21 04:39:46;;;;;;;17.65;11.27;;;;;;;9.59;74.26;103027.06;5039430;28;20041;-51
2021/09/21 04:42:12;;;;;;;16.98;10.68;;;;;;;9.63;74.60;103034.22;5042830;28;20111;-48
2021/09/21 04:44:38;;;;;;;18.58;11.43;;;;;;;9.63;74.39;103038.53;5026072;28;20140;-50
2021/09/21 04:47:04;;;;;;;16.58;10.52;;;;;;;9.62;74.63;103036.75;5047149;28;20067;-53
2021/09/21 04:49:31;;;;;;;18.23;10.68;;;;;;;9.61;74.63;103030.66;5046346;28;20094;-52
2021/09/21 04:51:57;;;;;;;15.63;10.40;;;;;;;9.62;74.56;103034.16;5021717;28;20052;-49
2021/09/21 04:54:22;;;;;;;19.80;11.45;;;;;;;9.62;74.32;103032.44;5042513;28;20628;-50
2021/09/21 04:56:48;;;;;;;16.73;10.38;;;;;;;9.64;74.21;103032.50;5047600;28;20751;-50
2021/09/21 04:59:13;;;;;;;15.45;9.38;;;;;;;9.62;74.31;103036.75;5045891;28;20040;-50
2021/09/21 05:01:38;;;;;;;20.75;11.60;;;;;;;9.60;74.59;103043.56;5037150;28;20040;-53
2021/09/21 05:04:04;;;;;;;18.40;11.00;;;;;;;9.60;74.52;103034.06;5029619;28;20516;-49
2021/09/21 05:06:29;;;;;;;16.65;10.73;;;;;;;9.59;74.23;103045.28;5046188;28;20054;-49
2021/09/21 05:08:55;;;;;;;16.58;10.32;;;;;;;9.57;74.43;103043.44;5042535;28;20044;-51
2021/09/21 05:11:21;;;;;;;17.58;10.50;;;;;;;9.56;74.70;103049.44;5047513;28;20869;-52
2021/09/21 05:13:46;;;;;;;18.58;11.55;;;;;;;9.56;74.50;103052.06;5038418;28;20075;-51
2021/09/21 05:16:12;;;;;;;17.55;10.10;;;;;;;9.58;74.20;103053.91;5049853;28;20504;-50
2021/09/21 05:18:37;;;;;;;17.45;10.75;;;;;;;9.56;74.32;103050.34;5043742;28;20506;-49
2021/09/21 05:21:03;;;;;;;16.88;10.80;;;;;;;9.59;74.09;103049.59;5050018;28;20115;-51
2021/09/21 05:23:28;;;;;;;16.80;10.35;;;;;;;9.62;74.26;103036.75;5040821;28;20044;-49
2021/09/21 05:25:53;;;;;;;17.00;10.18;;;;;;;9.66;74.48;103044.78;5039038;28;20091;-50
2021/09/21 05:28:19;;;;;;;17.80;10.77;;;;;;;9.68;74.22;103056.19;5044155;28;20152;-49
2021/09/21 05:30:45;;;;;;;17.73;10.48;;;;;;;9.71;74.20;103053.72;5045431;28;20510;-50
2021/09/21 05:33:10;;;;;;;19.45;10.88;;;;;;;9.72;74.61;103055.53;5044433;28;20049;-49
2021/09/21 05:35:35;;;;;;;16.98;10.20;;;;;;;9.79;74.79;103054.13;5036145;28;20494;-48
2021/09/21 05:38:01;;;;;;;18.85;11.07;;;;;;;9.86;74.50;103052.72;5042208;28;20036;-48
2021/09/21 05:40:28;;;;;;;20.17;12.90;;;;;;;9.93;74.78;103054.84;5043123;28;20977;-51
2021/09/21 05:42:54;;;;;;;20.27;11.75;;;;;;;10.01;75.06;103048.28;5043531;28;20045;-48
2021/09/21 05:45:19;;;;;;;21.05;12.35;;;;;;;10.08;74.91;103048.66;5045072;28;20440;-50
2021/09/21 05:47:45;;;;;;;21.15;13.45;;;;;;;10.17;74.46;103048.28;5040527;28;20040;-50
2021/09/21 05:50:11;;;;;;;21.65;13.18;;;;;;;10.30;74.83;103035.03;5047949;28;20044;-48
2021/09/21 05:52:37;;;;;;;24.40;14.13;;;;;;;10.42;74.59;103032.13;5023301;28;20040;-49
2021/09/21 05:55:04;;;;;;;20.02;12.50;;;;;;;10.56;74.81;103042.38;5041793;28;20040;-47
2021/09/21 05:57:30;;;;;;;28.25;15.00;;;;;;;10.68;74.82;103029.03;5026445;28;20518;-48
2021/09/21 05:59:57;;;;;;;25.13;14.98;;;;;;;10.87;74.46;103043.81;5037901;28;21931;-49
2021/09/21 06:02:23;;;;;;;25.10;14.48;;;;;;;11.07;74.93;103042.13;5041770;28;20044;-48
2021/09/21 06:04:51;;;;;;;25.85;14.75;;;;;;;11.27;74.88;103046.56;5044517;28;20047;-49
2021/09/21 06:07:17;;;;;;;23.00;14.65;;;;;;;11.47;74.23;103048.31;5045816;28;20041;-51
2021/09/21 06:09:43;;;;;;;23.52;14.70;;;;;;;11.69;73.63;103056.28;5016614;28;20047;-50
2021/09/21 06:12:08;;;;;;;23.67;13.95;;;;;;;12.04;73.33;103057.81;5044360;28;20507;-50
2021/09/21 06:14:34;;;;;;;16.80;11.18;;;;;;;12.76;70.85;103056.41;5044223;28;20128;-52
2021/09/21 06:16:59;;;;;;;17.95;11.75;;;;;;;13.58;66.63;103063.88;5043866;28;20072;-47
2021/09/21 06:19:24;;;;;;;16.63;10.35;;;;;;;14.40;62.98;103066.72;5046406;28;20464;-48
2021/09/21 06:21:50;;;;;;;16.63;10.43;;;;;;;15.03;59.58;103068.75;5019089;28;20033;-52
2021/09/21 06:24:15;;;;;;;17.98;10.52;;;;;;;15.61;57.60;103064.31;5026056;28;20032;-48
2021/09/21 06:26:41;;;;;;;17.75;10.60;;;;;;;16.07;57.50;103061.16;5027045;28;20046;-53
2021/09/21 06:29:06;;;;;;;15.75;10.05;;;;;;;16.32;56.82;103063.53;5042284;28;20514;-51
2021/09/21 06:31:33;;;;;;;15.45;10.82;;;;;;;16.41;57.70;103058.47;5042480;28;20051;-51
2021/09/21 06:33:58;;;;;;;17.02;10.32;;;;;;;16.38;57.65;103061.06;5038617;28;20044;-51
2021/09/21 06:36:23;;;;;;;18.42;10.10;;;;;;;16.20;56.56;103069.41;5046412;28;20047;-49
2021/09/21 06:38:49;;;;;;;17.00;9.70;;;;;;;16.04;57.15;103076.88;5041230;28;20044;-48
2021/09/21 06:41:14;;;;;;;18.77;9.50;;;;;;;16.04;56.83;103072.47;5035499;28;20101;-47
2021/09/21 06:43:39;;;;;;;18.55;9.70;;;;;;;16.07;56.36;103084.81;5015415;28;20179;-50
2021/09/21 06:46:05;;;;;;;17.40;9.45;;;;;;;16.33;56.49;103082.88;5037267;28;20043;-49
2021/09/21 06:48:31;;;;;;;14.13;9.50;;;;;;;16.75;55.45;103093.56;5039688;28;20402;-50
2021/09/21 06:50:56;;;;;;;13.02;8.80;;;;;;;17.20;53.72;103097.22;5025806;28;20118;-49
2021/09/21 06:53:22;;;;;;;12.95;9.32;;;;;;;17.43;53.65;103101.25;5042256;28;20052;-53
2021/09/21 06:55:47;;;;;;;13.18;8.85;;;;;;;17.65;52.69;103097.31;5037152;28;20087;-53
2021/09/21 06:58:13;;;;;;;13.75;9.35;;;;;;;18.17;51.60;103101.81;5046867;28;20043;-53
2021/09/21 07:00:40;;;;;;;13.75;9.15;;;;;;;18.23;50.73;103103.66;5043488;28;20102;-49
2021/09/21 07:03:07;;;;;;;12.55;9.40;;;;;;;18.20;51.10;103103.59;5025177;28;20542;-52
2021/09/21 07:05:33;;;;;;;13.00;8.63;;;;;;;18.17;51.00;103099.16;5046078;28;20485;-51
2021/09/21 07:07:59;;;;;;;14.63;8.95;;;;;;;18.53;51.16;103105.91;5018031;28;20484;-50
2021/09/21 07:10:24;;;;;;;11.40;8.50;;;;;;;18.42;50.16;103113.63;5021752;28;20329;-51
2021/09/21 07:12:51;;;;;;;12.43;8.32;;;;;;;18.54;50.71;103113.84;5037337;28;20052;-52
2021/09/21 07:15:22;;;;;;;12.30;8.43;;;;;;;18.64;49.68;103115.81;5025190;28;20064;-51
2021/09/21 07:17:47;;;;;;;12.13;8.65;;;;;;;18.53;52.13;103120.03;5032516;28;20337;-52
2021/09/21 07:20:13;;;;;;;14.90;8.48;;;;;;;18.52;52.18;103125.28;5040121;28;20132;-49
2021/09/21 07:22:39;;;;;;;12.70;8.15;;;;;;;18.76;49.52;103128.34;5023197;28;20036;-52
2021/09/21 07:25:05;;;;;;;14.43;8.68;;;;;;;18.56;50.00;103128.00;5040027;28;20178;-52
2021/09/21 07:27:32;;;;;;;13.00;9.07;;;;;;;18.13;53.52;103136.91;5043627;28;20115;-54
2021/09/21 07:29:57;;;;;;;10.50;8.05;;;;;;;17.96;51.13;103138.34;5034069;28;20059;-50
2021/09/21 07:32:22;;;;;;;12.57;9.02;;;;;;;17.59;53.47;103142.00;5046038;28;20126;-54
2021/09/21 07:34:48;;;;;;;16.08;9.02;;;;;;;17.42;53.01;103144.28;5028339;28;20463;-51
2021/09/21 07:37:13;;;;;;;12.98;8.77;;;;;;;17.19;54.20;103147.28;5041737;28;20071;-50
2021/09/21 07:39:39;;;;;;;14.02;8.43;;;;;;;17.09;53.27;103151.44;5042404;28;20085;-51
2021/09/21 07:42:05;;;;;;;13.82;9.27;;;;;;;16.89;56.85;103156.28;5043040;28;20488;-50
2021/09/21 07:44:30;;;;;;;13.38;8.27;;;;;;;16.82;54.62;103159.63;5046207;28;20559;-53
2021/09/21 07:46:57;;;;;;;14.45;8.80;;;;;;;16.81;55.41;103152.56;5047009;28;20123;-52
2021/09/21 07:49:22;;;;;;;12.93;7.75;;;;;;;17.15;53.40;103154.22;5043079;28;20041;-49
2021/09/21 07:51:48;;;;;;;11.52;7.53;;;;;;;17.37;52.47;103155.59;5041342;28;20049;-51
2021/09/21 07:54:13;;;;;;;13.88;7.85;;;;;;;17.60;53.13;103161.34;5027438;28;20116;-48
2021/09/21 07:56:39;;;;;;;10.63;8.13;;;;;;;17.85;52.91;103155.75;5049599;28;20040;-49
2021/09/21 07:59:05;;;;;;;12.80;8.10;;;;;;;18.04;51.17;103157.88;5043559;28;20536;-51
2021/09/21 08:01:35;;;;;;;13.20;7.88;;;;;;;17.84;49.43;103159.22;5044586;28;20045;-48
2021/09/21 08:04:01;;;;;;;10.23;6.70;;;;;;;17.92;50.23;103156.75;5042475;28;20048;-52
2021/09/21 08:06:26;;;;;;;8.65;6.20;;;;;;;18.14;50.15;103153.66;5042884;28;20507;-53
2021/09/21 08:08:52;;;;;;;10.20;5.63;;;;;;;18.36;47.94;103152.28;5046847;28;20193;-53
2021/09/21 08:11:17;;;;;;;8.98;5.35;;;;;;;18.44;46.67;103159.47;5045057;28;20484;-54
2021/09/21 08:13:43;;;;;;;7.95;5.07;;;;;;;18.62;47.48;103157.16;5038016;28;20403;-53
2021/09/21 08:16:08;;;;;;;9.35;4.60;;;;;;;18.71;45.27;103153.81;5050595;28;20044;-53
2021/09/21 08:18:33;;;;;;;7.22;4.10;;;;;;;18.79;45.39;103148.59;5040137;28;20451;-53
2021/09/21 08:20:59;;;;;;;7.80;3.58;;;;;;;18.99;43.63;103155.09;5044917;28;20056;-52
2021/09/21 08:23:25;;;;;;;4.90;3.65;;;;;;;19.09;43.63;103148.22;5026062;28;20045;-47
2021/09/21 08:25:50;;;;;;;7.10;3.70;;;;;;;19.31;43.14;103161.75;5022533;28;20075;-51
2021/09/21 08:28:17;;;;;;;4.10;3.17;;;;;;;19.55;43.85;103161.22;5041492;28;20434;-52
2021/09/21 08:30:42;;;;;;;6.38;3.70;;;;;;;19.31;43.45;103161.75;5041239;28;20051;-51
2021/09/21 08:33:08;;;;;;;5.07;3.40;;;;;;;19.40;44.70;103166.25;5045221;28;20455;-49
2021/09/21 08:35:33;;;;;;;6.95;3.30;;;;;;;19.60;44.69;103169.19;5043661;28;20040;-51
2021/09/21 08:38:00;;;;;;;7.13;3.42;;;;;;;19.29;44.84;103167.88;5041817;28;20084;-50
2021/09/21 08:40:25;;;;;;;7.75;3.75;;;;;;;19.27;45.96;103162.53;5023606;28;20097;-49
2021/09/21 08:42:50;;;;;;;4.95;2.80;;;;;;;19.51;46.06;103162.03;5041023;28;20159;-54
2021/09/21 08:45:16;;;;;;;4.82;3.10;;;;;;;19.50;44.37;103167.31;5042783;28;20126;-52
2021/09/21 08:47:41;;;;;;;5.13;2.85;;;;;;;19.56;42.79;103165.63;5035052;28;20049;-51
2021/09/21 08:50:08;;;;;;;6.82;3.33;;;;;;;19.63;43.92;103170.13;5022224;28;20091;-49
2021/09/21 08:52:36;;;;;;;7.22;3.80;;;;;;;19.62;43.13;103162.16;5040426;28;20410;-49
2021/09/21 08:55:01;;;;;;;6.55;4.03;;;;;;;19.58;44.94;103165.66;5045495;28;20091;-50
2021/09/21 08:57:28;;;;;;;9.02;5.53;;;;;;;19.58;44.04;103168.31;5046745;28;20480;-53
2021/09/21 08:59:55;;;;;;;10.07;6.03;;;;;;;19.61;45.89;103177.16;5031355;28;20040;-49
2021/09/21 09:02:22;;;;;;;15.70;6.38;;;;;;;19.68;44.80;103178.13;5042591;28;20048;-48
2021/09/21 09:04:59;;;;;;;11.07;6.90;;;;;;;19.69;43.84;103179.91;5040241;28;20047;-52
2021/09/21 09:07:28;;;;;;;12.15;7.55;;;;;;;19.81;46.99;103180.94;5044770;28;20481;-50
2021/09/21 09:10:02;;;;;;;13.20;6.35;;;;;;;20.05;42.84;103172.38;5035080;28;20261;-51
2021/09/21 09:12:33;;;;;;;11.23;5.50;;;;;;;20.21;43.96;103176.97;5027158;28;20051;-49
2021/09/21 09:15:08;;;;;;;10.15;5.53;;;;;;;20.23;43.66;103167.28;5045029;28;20044;-53
2021/09/21 09:17:34;;;;;;;9.25;5.20;;;;;;;20.20;44.83;103164.59;5023321;28;20075;-49
2021/09/21 09:19:59;;;;;;;9.35;4.82;;;;;;;19.89;43.17;103167.78;5039926;28;20398;-50
2021/09/21 09:22:26;;;;;;;10.32;4.40;;;;;;;19.80;43.37;103170.34;5044232;28;20403;-50
2021/09/21 09:24:59;;;;;;;6.65;3.83;;;;;;;19.92;42.39;103170.47;5025314;28;20051;-51
2021/09/21 09:27:38;;;;;;;5.65;4.00;;;;;;;20.00;40.51;103178.50;5026978;28;20052;-50
2021/09/21 09:30:07;;;;;;;5.57;3.60;;;;;;;20.01;41.16;103167.91;5043281;28;20095;-49
2021/09/21 09:32:47;;;;;;;5.57;3.83;;;;;;;20.08;43.14;103171.50;5044414;28;20043;-52
2021/09/21 09:35:22;;;;;;;5.18;3.47;;;;;;;20.20;41.63;103171.63;5043160;28;20383;-53
2021/09/21 09:37:48;;;;;;;4.55;3.17;;;;;;;20.36;39.96;103168.31;5035451;28;20032;-52
2021/09/21 09:40:13;;;;;;;10.57;3.85;;;;;;;20.32;40.11;103168.22;5041096;28;20476;-53
2021/09/21 09:42:41;;;;;;;5.78;3.40;;;;;;;20.50;39.80;103164.00;5041260;28;20036;-57
2021/09/21 09:45:07;;;;;;;6.45;3.00;;;;;;;20.64;39.37;103170.31;5043732;28;20063;-49
2021/09/21 09:47:43;;;;;;;6.10;3.47;;;;;;;20.62;40.97;103168.53;5041974;28;20488;-52
2021/09/21 09:50:09;;;;;;;6.75;3.45;;;;;;;20.38;40.05;103171.84;5035990;28;20145;-48
2021/09/21 09:52:37;;;;;;;8.48;3.33;;;;;;;20.21;41.59;103176.06;5024808;28;20248;-53
2021/09/21 09:55:03;;;;;;;6.45;3.25;;;;;;;20.41;39.93;103169.25;5044637;28;20063;-51
2021/09/21 09:57:29;;;;;;;5.13;3.03;;;;;;;20.35;38.71;103171.84;5043040;28;20041;-50
2021/09/21 09:59:55;;;;;;;4.13;2.70;;;;;;;20.44;39.53;103163.94;5013953;28;20578;-50
2021/09/21 10:02:21;;;;;;;4.60;3.05;;;;;;;20.41;39.00;103163.06;5041203;28;20151;-51
2021/09/21 10:04:47;;;;;;;7.38;3.08;;;;;;;20.54;39.61;103157.88;5042776;28;20040;-50
2021/09/21 10:07:12;;;;;;;5.47;3.20;;;;;;;20.68;39.82;103163.28;5024210;28;20044;-50
2021/09/21 10:09:37;;;;;;;5.10;2.45;;;;;;;20.85;39.00;103172.25;5014207;28;21148;-51
2021/09/21 10:12:04;;;;;;;5.53;2.80;;;;;;;20.97;37.44;103175.00;5042732;28;20808;-48
2021/09/21 10:14:29;;;;;;;4.53;2.20;;;;;;;21.11;36.66;103182.13;5040528;28;20043;-51
2021/09/21 10:16:58;;;;;;;3.75;2.22;;;;;;;21.09;36.70;103165.34;5039419;28;20440;-50
2021/09/21 10:19:25;;;;;;;2.42;1.90;;;;;;;21.19;37.93;103172.50;5038733;28;20551;-50
2021/09/21 10:21:53;;;;;;;5.22;2.00;;;;;;;21.10;40.04;103160.06;5032318;28;20489;-53
2021/09/21 10:24:39;;;;;;;4.50;2.20;;;;;;;21.09;36.24;103160.94;5036761;28;20044;-53
2021/09/21 10:27:10;;;;;;;3.40;2.40;;;;;;;20.91;41.64;103167.00;5041463;28;20110;-53
2021/09/21 10:29:36;;;;;;;3.70;2.30;;;;;;;20.87;40.65;103159.88;5037878;28;20179;-52
2021/09/21 10:32:10;;;;;;;4.25;2.20;;;;;;;20.89;38.70;103157.25;5041650;28;20484;-49
2021/09/21 10:34:42;;;;;;;5.57;2.10;;;;;;;21.09;38.23;103162.69;5043731;28;20159;-53
2021/09/21 10:37:08;;;;;;;6.30;2.17;;;;;;;21.19;39.04;103159.25;5043560;28;20049;-50
2021/09/21 10:39:33;;;;;;;4.90;2.45;;;;;;;21.23;40.31;103158.38;5039087;28;20880;-51
2021/09/21 10:42:05;;;;;;;4.63;2.60;;;;;;;21.25;41.26;103157.50;5041277;28;20051;-53
2021/09/21 10:44:31;;;;;;;4.72;2.90;;;;;;;21.22;40.15;103152.19;5037295;28;20252;-53
2021/09/21 10:47:00;;;;;;;4.65;3.10;;;;;;;21.20;41.28;103161.91;5031735;28;20539;-49
2021/09/21 10:49:35;;;;;;;5.13;3.10;;;;;;;21.25;40.20;103165.47;5036511;28;20173;-52
2021/09/21 10:52:03;;;;;;;7.35;2.80;;;;;;;21.30;43.07;103166.38;5038681;28;20132;-49
2021/09/21 10:54:30;;;;;;;7.47;2.92;;;;;;;21.27;42.01;103161.06;5026096;28;20029;-47
2021/09/21 10:57:13;;;;;;;5.32;3.30;;;;;;;21.18;43.95;103160.09;5017564;28;20756;-47
2021/09/21 10:59:41;;;;;;;5.53;2.88;;;;;;;21.22;40.48;103161.94;5021369;28;20040;-50
2021/09/21 11:02:09;;;;;;;4.90;3.28;;;;;;;21.24;40.38;103161.03;5042084;28;20048;-50
2021/09/21 11:04:39;;;;;;;4.25;2.70;;;;;;;21.44;41.62;103158.50;5036886;28;21362;-50
2021/09/21 11:07:05;;;;;;;6.53;3.28;;;;;;;21.53;40.67;103158.50;5045815;28;20336;-51
2021/09/21 11:09:31;;;;;;;6.45;3.40;;;;;;;21.50;41.44;103165.59;5040291;28;20044;-51
2021/09/21 11:12:11;;;;;;;5.93;3.40;;;;;;;21.59;39.81;103165.66;5037051;28;20700;-53
2021/09/21 11:14:41;;;;;;;7.00;3.13;;;;;;;21.13;43.42;103178.63;5040413;28;20155;-51
2021/09/21 11:17:08;;;;;;;6.10;3.75;;;;;;;21.05;42.04;103167.97;5044202;28;20455;-50
2021/09/21 11:19:34;;;;;;;6.47;3.33;;;;;;;20.98;41.72;103162.63;5040486;28;20110;-47
2021/09/21 11:22:09;;;;;;;4.72;3.33;;;;;;;21.16;39.82;103159.25;5041970;28;20614;-53
2021/09/21 11:24:36;;;;;;;8.73;3.80;;;;;;;21.38;40.53;103156.69;5046589;28;20277;-49
2021/09/21 11:27:11;;;;;;;6.10;3.90;;;;;;;21.59;40.77;103155.03;5039030;28;20081;-48
2021/09/21 11:29:38;;;;;;;6.13;3.50;;;;;;;21.44;41.79;103150.53;5022197;28;20048;-52
2021/09/21 11:32:21;;;;;;;5.00;3.47;;;;;;;21.50;40.33;103155.88;5028907;28;20039;-50